Time;durP1;ratioP1;P1;durP2;ratioP2;P2;SDS_P1;SDS_P2;PMS_P1;PMS_P2;Temp;Humidity;BMP_temperature;BMP_pressure;BME280_temperature;BME280_humidity;BME280_pressure;Samples;Min_cycle;Max_cycle;Signal;HPM_P1;HPM_P2
2022/03/22 00:00:24;;;;;;;;;;;13.20;93.80;;;;;;4330503;33;43807;-86
2022/03/22 00:02:51;;;;;;;;;;;13.20;93.50;;;;;;4330132;33;43857;-86
2022/03/22 00:05:19;;;;;;;;;;;13.20;93.70;;;;;;4317054;33;42871;-86
2022/03/22 00:07:46;;;;;;;;;;;13.20;93.60;;;;;;4305985;33;20053;-86
2022/03/22 00:10:14;;;;;;;;;;;13.20;93.40;;;;;;4318161;33;43959;-86
2022/03/22 00:12:41;;;;;;;;;;;13.20;93.50;;;;;;4333372;33;42256;-86
2022/03/22 00:15:09;;;;;;;;;;;13.20;93.40;;;;;;4333390;33;44633;-87
2022/03/22 00:17:57;;;;;;;;;;;13.10;93.50;;;;;;4322594;33;45158;-86
2022/03/22 00:20:24;;;;;;;;;;;13.10;93.50;;;;;;4333255;33;43201;-86
2022/03/22 00:22:51;;;;;;;;;;;13.10;93.40;;;;;;4333440;33;44717;-86
2022/03/22 00:25:18;;;;;;;;;;;13.10;93.40;;;;;;4333393;33;43429;-86
2022/03/22 00:27:52;;;;;;;;;;;13.10;93.40;;;;;;4333442;33;43028;-87
2022/03/22 00:30:25;;;;;;;;;;;13.10;93.30;;;;;;4333056;33;42921;-86
2022/03/22 00:32:54;;;;;;;;;;;13.10;93.30;;;;;;4333121;33;43870;-86
2022/03/22 00:35:25;;;;;;;;;;;13.10;93.60;;;;;;4333141;33;44328;-86
2022/03/22 00:37:53;;;;;;;;;;;13.00;93.30;;;;;;4320534;33;20005;-86
2022/03/22 00:40:21;;;;;;;;;;;13.00;93.30;;;;;;4319590;33;44407;-86
2022/03/22 00:42:48;;;;;;;;;;;13.00;93.30;;;;;;4319665;33;43196;-86
2022/03/22 00:45:18;;;;;;;;;;;13.00;93.40;;;;;;4320045;33;45942;-86
2022/03/22 00:47:46;;;;;;;;;;;13.00;93.40;;;;;;4320013;33;44794;-86
2022/03/22 00:50:14;;;;;;;;;;;13.00;93.30;;;;;;4332863;33;43918;-86
2022/03/22 00:52:41;;;;;;;;;;;12.90;93.40;;;;;;4319849;33;42458;-86
2022/03/22 00:55:09;;;;;;;;;;;13.00;93.20;;;;;;4319920;33;43203;-86
2022/03/22 00:57:36;;;;;;;;;;;13.00;93.40;;;;;;4332564;33;43801;-86
2022/03/22 01:00:06;;;;;;;;;;;12.90;93.20;;;;;;4319706;33;44403;-86
2022/03/22 01:02:34;;;;;;;;;;;12.90;93.30;;;;;;4319471;33;44237;-86
2022/03/22 01:05:07;;;;;;;;;;;12.90;93.10;;;;;;4319239;33;43452;-86
2022/03/22 01:07:34;;;;;;;;;;;12.90;93.40;;;;;;4332362;33;42671;-86
2022/03/22 01:10:04;;;;;;;;;;;12.90;93.20;;;;;;4332812;33;43480;-86
2022/03/22 01:12:32;;;;;;;;;;;12.90;93.00;;;;;;4332216;33;44686;-86
2022/03/22 01:15:00;;;;;;;;;;;12.90;93.10;;;;;;4332496;33;43380;-86
2022/03/22 01:17:27;;;;;;;;;;;12.90;93.00;;;;;;4332312;33;44159;-83
2022/03/22 01:19:54;;;;;;;;;;;12.90;93.10;;;;;;4319592;33;44231;-86
2022/03/22 01:22:21;;;;;;;;;;;12.90;93.40;;;;;;4331355;33;46144;-86
2022/03/22 01:24:52;;;;;;;;;;;12.90;93.30;;;;;;4332577;33;44179;-85
2022/03/22 01:27:22;;;;;;;;;;;12.90;93.20;;;;;;4332310;33;43597;-86
2022/03/22 01:29:49;;;;;;;;;;;12.80;93.30;;;;;;4319235;33;44223;-86
2022/03/22 01:32:16;;;;;;;;;;;12.80;92.80;;;;;;4318807;33;42730;-86
2022/03/22 01:34:44;;;;;;;;;;;12.90;93.00;;;;;;4332417;33;43348;-86
2022/03/22 01:37:11;;;;;;;;;;;12.80;92.80;;;;;;4318855;33;42793;-86
2022/03/22 01:39:38;;;;;;;;;;;12.80;92.80;;;;;;4319244;33;43501;-86
2022/03/22 01:42:05;;;;;;;;;;;12.80;93.20;;;;;;4319004;33;44354;-87
2022/03/22 01:44:32;;;;;;;;;;;12.80;93.20;;;;;;4332241;33;43394;-86
2022/03/22 01:47:01;;;;;;;;;;;12.80;92.90;;;;;;4318956;33;43210;-86
2022/03/22 01:49:28;;;;;;;;;;;12.80;92.90;;;;;;4332195;33;43059;-86
2022/03/22 01:51:55;;;;;;;;;;;12.80;92.80;;;;;;4332094;33;43401;-86
2022/03/22 01:54:23;;;;;;;;;;;12.70;93.00;;;;;;4318619;33;44185;-85
2022/03/22 01:56:50;;;;;;;;;;;12.70;93.00;;;;;;4332136;33;44126;-86
2022/03/22 01:59:17;;;;;;;;;;;12.70;92.80;;;;;;4331862;33;45193;-86
2022/03/22 02:07:16;;;;;;;;;;;12.70;92.70;;;;;;4332008;33;44469;-86
2022/03/22 02:09:43;;;;;;;;;;;12.70;92.90;;;;;;4318773;33;43054;-86
2022/03/22 02:12:10;;;;;;;;;;;12.70;93.10;;;;;;4318425;33;46196;-86
2022/03/22 02:14:37;;;;;;;;;;;12.70;93.30;;;;;;4331385;33;44289;-86
2022/03/22 02:17:09;;;;;;;;;;;12.70;92.80;;;;;;4331725;33;44146;-86
2022/03/22 02:19:37;;;;;;;;;;;12.70;92.80;;;;;;4331338;33;44227;-86
2022/03/22 02:22:06;;;;;;;;;;;12.70;92.80;;;;;;4331322;33;42952;-86
2022/03/22 02:24:33;;;;;;;;;;;12.60;93.00;;;;;;4318488;33;45066;-86
2022/03/22 02:27:00;;;;;;;;;;;12.60;92.80;;;;;;4331143;33;44702;-86
2022/03/22 02:29:28;;;;;;;;;;;12.60;92.80;;;;;;4318478;33;43250;-86
2022/03/22 02:31:55;;;;;;;;;;;12.60;92.90;;;;;;4331441;33;42780;-86
2022/03/22 02:34:22;;;;;;;;;;;12.60;92.70;;;;;;4331084;33;44038;-86
2022/03/22 02:36:49;;;;;;;;;;;12.60;92.70;;;;;;4331467;33;42746;-86
2022/03/22 02:39:16;;;;;;;;;;;12.60;92.80;;;;;;4318304;33;45160;-86
2022/03/22 02:41:45;;;;;;;;;;;12.60;92.80;;;;;;4318186;33;44097;-86
2022/03/22 02:44:12;;;;;;;;;;;12.60;92.90;;;;;;4331377;33;43759;-86
2022/03/22 02:46:39;;;;;;;;;;;12.50;92.70;;;;;;4331176;33;42349;-86
2022/03/22 02:49:07;;;;;;;;;;;12.50;93.00;;;;;;4330790;33;44837;-85
2022/03/22 02:51:34;;;;;;;;;;;12.50;92.60;;;;;;4331228;33;44379;-86
2022/03/22 02:54:02;;;;;;;;;;;12.50;92.80;;;;;;4318354;33;44066;-87
2022/03/22 02:56:29;;;;;;;;;;;12.50;92.60;;;;;;4317746;33;43059;-86
2022/03/22 02:58:56;;;;;;;;;;;12.50;92.50;;;;;;4317961;33;43485;-86
2022/03/22 03:01:23;;;;;;;;;;;12.50;92.20;;;;;;4317794;33;43466;-85
2022/03/22 03:03:50;;;;;;;;;;;12.40;92.70;;;;;;4331074;33;43787;-86
2022/03/22 03:06:18;;;;;;;;;;;12.50;92.50;;;;;;4318051;33;45963;-86
2022/03/22 03:08:45;;;;;;;;;;;12.50;92.80;;;;;;4330646;33;42959;-86
2022/03/22 03:11:12;;;;;;;;;;;12.50;92.60;;;;;;4331089;33;43314;-86
2022/03/22 03:16:25;;;;;;;;;;;12.40;92.40;;;;;;4331192;33;43204;-86
2022/03/22 03:18:52;;;;;;;;;;;12.40;92.50;;;;;;4330981;33;45483;-86
2022/03/22 03:21:20;;;;;;;;;;;12.40;92.10;;;;;;4330942;33;43534;-86
2022/03/22 03:23:47;;;;;;;;;;;12.40;92.50;;;;;;4317473;33;42864;-86
2022/03/22 03:26:14;;;;;;;;;;;12.40;92.30;;;;;;4317456;33;42483;-86
2022/03/22 03:28:41;;;;;;;;;;;12.40;92.30;;;;;;4330428;33;43040;-86
2022/03/22 03:31:08;;;;;;;;;;;12.40;92.20;;;;;;4317333;33;43286;-86
2022/03/22 03:33:35;;;;;;;;;;;12.40;92.10;;;;;;4317184;33;44174;-86
2022/03/22 03:36:03;;;;;;;;;;;12.40;92.10;;;;;;4317124;33;43196;-86
2022/03/22 03:38:30;;;;;;;;;;;12.30;92.10;;;;;;4330335;33;43943;-86
2022/03/22 03:43:43;;;;;;;;;;;12.30;92.20;;;;;;4330945;33;43239;-86
2022/03/22 03:48:59;;;;;;;;;;;12.30;92.10;;;;;;4330714;33;45191;-86
2022/03/22 03:51:28;;;;;;;;;;;12.30;92.10;;;;;;4317680;33;44782;-85
2022/03/22 03:53:55;;;;;;;;;;;12.30;92.00;;;;;;4317007;33;42657;-86
2022/03/22 03:56:23;;;;;;;;;;;12.30;91.70;;;;;;4317395;33;43883;-86
2022/03/22 03:58:51;;;;;;;;;;;12.30;92.00;;;;;;4330129;33;44619;-86
2022/03/22 04:01:18;;;;;;;;;;;12.30;91.50;;;;;;4317582;33;43113;-86
2022/03/22 04:03:46;;;;;;;;;;;12.20;91.70;;;;;;4316918;33;44044;-86
2022/03/22 04:06:13;;;;;;;;;;;12.20;91.70;;;;;;4330285;33;43245;-86
2022/03/22 04:08:40;;;;;;;;;;;12.20;91.70;;;;;;4317217;33;43024;-87
2022/03/22 04:11:07;;;;;;;;;;;12.30;91.40;;;;;;4330562;33;44482;-86
2022/03/22 04:13:35;;;;;;;;;;;12.20;91.70;;;;;;4330378;33;44671;-87
2022/03/22 04:16:03;;;;;;;;;;;12.20;91.80;;;;;;4316991;33;44088;-86
2022/03/22 04:18:30;;;;;;;;;;;12.20;91.90;;;;;;4317473;33;43295;-86
2022/03/22 04:20:57;;;;;;;;;;;12.20;91.80;;;;;;4330369;33;45723;-86
2022/03/22 04:23:24;;;;;;;;;;;12.20;91.60;;;;;;4329958;33;44092;-86
2022/03/22 04:25:51;;;;;;;;;;;12.20;91.70;;;;;;4316878;33;44008;-86
2022/03/22 04:33:51;;;;;;;;;;;12.20;91.60;;;;;;4330146;33;43390;-88
2022/03/22 04:36:18;;;;;;;;;;;12.10;91.70;;;;;;4330310;33;43426;-86
2022/03/22 04:38:45;;;;;;;;;;;12.10;91.90;;;;;;4316668;33;44973;-86
2022/03/22 04:41:13;;;;;;;;;;;12.10;91.90;;;;;;4331091;33;20005;-86
2022/03/22 04:43:40;;;;;;;;;;;12.10;91.70;;;;;;4316867;33;44114;-86
2022/03/22 04:46:08;;;;;;;;;;;12.10;91.60;;;;;;4329847;33;43258;-86
2022/03/22 04:48:40;;;;;;;;;;;12.10;91.80;;;;;;4317856;33;43858;-86
2022/03/22 04:56:48;;;;;;;;;;;12.10;91.50;;;;;;4331848;33;41991;-86
2022/03/22 04:59:19;;;;;;;;;;;12.10;91.70;;;;;;4319959;33;43957;-86
2022/03/22 05:01:46;;;;;;;;;;;12.00;91.80;;;;;;4332285;33;44089;-87
2022/03/22 05:04:13;;;;;;;;;;;12.00;91.80;;;;;;4319321;33;42302;-86
2022/03/22 05:06:41;;;;;;;;;;;12.00;92.00;;;;;;4319335;33;43515;-86
2022/03/22 05:09:10;;;;;;;;;;;12.00;92.00;;;;;;4319643;33;43493;-86
2022/03/22 05:11:37;;;;;;;;;;;12.00;91.80;;;;;;4320719;33;20009;-86
2022/03/22 05:14:05;;;;;;;;;;;11.90;91.90;;;;;;4332302;33;42303;-86
2022/03/22 05:16:33;;;;;;;;;;;11.90;92.00;;;;;;4319613;33;44012;-86
2022/03/22 05:19:00;;;;;;;;;;;11.90;92.00;;;;;;4332283;33;42514;-86
2022/03/22 05:21:27;;;;;;;;;;;11.90;92.00;;;;;;4332326;33;44328;-86
2022/03/22 05:23:54;;;;;;;;;;;11.90;91.90;;;;;;4319288;33;43518;-86
2022/03/22 05:26:22;;;;;;;;;;;11.90;91.60;;;;;;4332725;33;45820;-86
2022/03/22 05:28:49;;;;;;;;;;;11.80;91.70;;;;;;4332708;33;43862;-86
2022/03/22 05:31:16;;;;;;;;;;;11.80;91.80;;;;;;4332521;33;45118;-86
2022/03/22 05:33:43;;;;;;;;;;;11.80;91.80;;;;;;4318986;33;43097;-85
2022/03/22 05:36:11;;;;;;;;;;;11.80;92.20;;;;;;4319461;33;44144;-86
2022/03/22 05:38:38;;;;;;;;;;;11.80;91.50;;;;;;4318791;33;43639;-85
2022/03/22 05:41:07;;;;;;;;;;;11.80;91.70;;;;;;4331851;33;42713;-86
2022/03/22 05:43:34;;;;;;;;;;;11.80;91.50;;;;;;4318617;33;44084;-86
2022/03/22 05:46:03;;;;;;;;;;;11.80;91.80;;;;;;4318640;33;45983;-86
2022/03/22 05:48:30;;;;;;;;;;;11.80;91.90;;;;;;4332473;33;44230;-86
2022/03/22 05:50:57;;;;;;;;;;;11.80;91.90;;;;;;4331847;33;44964;-86
2022/03/22 05:53:24;;;;;;;;;;;11.80;91.90;;;;;;4318950;33;42964;-86
2022/03/22 05:55:51;;;;;;;;;;;11.80;91.60;;;;;;4318985;33;43923;-86
2022/03/22 05:58:18;;;;;;;;;;;11.80;91.60;;;;;;4331929;33;44055;-86
2022/03/22 06:00:46;;;;;;;;;;;11.80;91.70;;;;;;4331887;33;44085;-86
2022/03/22 06:03:14;;;;;;;;;;;11.80;91.80;;;;;;4318458;33;45918;-86
2022/03/22 06:05:42;;;;;;;;;;;11.80;91.60;;;;;;4318710;33;44188;-86
2022/03/22 06:08:09;;;;;;;;;;;11.80;91.60;;;;;;4331065;33;45051;-86
2022/03/22 06:10:38;;;;;;;;;;;11.80;91.50;;;;;;4332040;33;44365;-86
2022/03/22 06:13:05;;;;;;;;;;;11.70;91.80;;;;;;4318341;33;44987;-86
2022/03/22 06:15:32;;;;;;;;;;;11.80;91.60;;;;;;4318291;33;43292;-86
2022/03/22 06:18:04;;;;;;;;;;;11.70;91.50;;;;;;4331620;33;42847;-86
2022/03/22 06:20:33;;;;;;;;;;;11.70;91.50;;;;;;4318226;33;43475;-86
2022/03/22 06:23:01;;;;;;;;;;;11.70;91.60;;;;;;4331724;33;44870;-86
2022/03/22 06:25:28;;;;;;;;;;;11.70;91.60;;;;;;4331658;33;43977;-86
2022/03/22 06:27:56;;;;;;;;;;;11.70;91.30;;;;;;4331373;33;43329;-86
2022/03/22 06:30:24;;;;;;;;;;;11.70;91.60;;;;;;4318042;33;44733;-86
2022/03/22 06:32:54;;;;;;;;;;;11.70;91.50;;;;;;4318350;33;46416;-86
2022/03/22 06:35:23;;;;;;;;;;;11.70;91.50;;;;;;4318043;33;43442;-86
2022/03/22 06:37:50;;;;;;;;;;;11.70;91.30;;;;;;4331079;33;44778;-86
2022/03/22 06:40:18;;;;;;;;;;;11.70;91.50;;;;;;4318092;33;43815;-86
2022/03/22 06:42:45;;;;;;;;;;;11.70;91.50;;;;;;4319306;33;20041;-86
2022/03/22 06:45:13;;;;;;;;;;;11.70;91.70;;;;;;4331039;33;43886;-85
2022/03/22 06:47:42;;;;;;;;;;;11.80;91.70;;;;;;4331455;33;45266;-86
2022/03/22 06:50:10;;;;;;;;;;;11.70;91.40;;;;;;4331409;33;46065;-86
2022/03/22 06:52:37;;;;;;;;;;;11.70;91.70;;;;;;4318056;33;45394;-86
2022/03/22 06:55:05;;;;;;;;;;;11.70;91.50;;;;;;4317896;33;44904;-86
2022/03/22 06:57:32;;;;;;;;;;;11.70;91.50;;;;;;4317694;33;43465;-86
2022/03/22 07:00:00;;;;;;;;;;;11.70;91.50;;;;;;4318028;33;43355;-86
2022/03/22 07:02:27;;;;;;;;;;;11.70;91.60;;;;;;4330736;33;43327;-86
2022/03/22 07:04:54;;;;;;;;;;;11.80;91.60;;;;;;4318273;33;45694;-87
2022/03/22 07:07:22;;;;;;;;;;;11.70;91.50;;;;;;4331096;33;43802;-86
2022/03/22 07:09:55;;;;;;;;;;;11.80;91.60;;;;;;4330763;33;45172;-86
2022/03/22 07:12:22;;;;;;;;;;;11.80;91.50;;;;;;4317658;33;44069;-86
2022/03/22 07:14:49;;;;;;;;;;;11.80;91.30;;;;;;4317788;33;44013;-86
2022/03/22 07:17:17;;;;;;;;;;;11.80;91.30;;;;;;4317789;33;43962;-85
2022/03/22 07:19:47;;;;;;;;;;;11.80;91.40;;;;;;4329961;33;42689;-85
2022/03/22 07:22:14;;;;;;;;;;;11.80;91.70;;;;;;4330799;33;43624;-85
2022/03/22 07:24:42;;;;;;;;;;;11.80;91.50;;;;;;4317875;33;45869;-86
2022/03/22 07:27:09;;;;;;;;;;;11.80;91.90;;;;;;4330831;33;43877;-87
2022/03/22 07:29:36;;;;;;;;;;;11.80;91.70;;;;;;4330826;33;44064;-86
2022/03/22 07:32:03;;;;;;;;;;;11.80;92.00;;;;;;4330805;33;42858;-86
2022/03/22 07:34:31;;;;;;;;;;;11.80;92.20;;;;;;4330455;33;43905;-86
2022/03/22 07:36:58;;;;;;;;;;;11.90;91.80;;;;;;4317306;33;43377;-86
2022/03/22 07:39:27;;;;;;;;;;;11.90;91.90;;;;;;4317025;33;44148;-86
2022/03/22 07:41:54;;;;;;;;;;;11.90;91.90;;;;;;4317332;33;42251;-86
2022/03/22 07:44:21;;;;;;;;;;;11.90;92.00;;;;;;4330738;33;43246;-86
2022/03/22 07:46:48;;;;;;;;;;;11.90;92.00;;;;;;4317514;33;45023;-87
2022/03/22 07:54:47;;;;;;;;;;;12.00;92.00;;;;;;4330720;33;45721;-86
2022/03/22 07:57:14;;;;;;;;;;;12.00;92.10;;;;;;4330455;33;44568;-86
2022/03/22 07:59:41;;;;;;;;;;;12.00;92.30;;;;;;4317484;33;43906;-86
2022/03/22 08:02:08;;;;;;;;;;;12.00;92.60;;;;;;4317012;33;43917;-86
2022/03/22 08:04:37;;;;;;;;;;;11.90;92.40;;;;;;4316990;33;44014;-86
2022/03/22 08:07:04;;;;;;;;;;;12.00;92.60;;;;;;4317079;33;45360;-86
2022/03/22 08:09:31;;;;;;;;;;;12.00;92.70;;;;;;4316872;33;44092;-86
2022/03/22 08:11:58;;;;;;;;;;;12.00;92.90;;;;;;4316874;33;43905;-86
2022/03/22 08:14:25;;;;;;;;;;;12.00;92.90;;;;;;4330077;33;43012;-86
2022/03/22 08:16:52;;;;;;;;;;;12.00;92.70;;;;;;4330218;33;42946;-87
2022/03/22 08:19:19;;;;;;;;;;;12.00;93.00;;;;;;4330165;33;43060;-85
2022/03/22 08:21:48;;;;;;;;;;;12.10;93.30;;;;;;4317068;33;43805;-86
2022/03/22 08:24:15;;;;;;;;;;;12.10;92.90;;;;;;4330312;33;43299;-86
2022/03/22 08:26:43;;;;;;;;;;;12.10;93.10;;;;;;4330373;33;42492;-86
2022/03/22 08:29:10;;;;;;;;;;;12.10;93.00;;;;;;4330150;33;43307;-86
2022/03/22 08:31:43;;;;;;;;;;;12.10;93.00;;;;;;4319000;33;42783;-85
2022/03/22 08:34:10;;;;;;;;;;;12.10;93.00;;;;;;4320089;33;43202;-85
2022/03/22 08:36:37;;;;;;;;;;;12.10;93.00;;;;;;4332761;33;44652;-85
2022/03/22 08:39:04;;;;;;;;;;;12.10;93.20;;;;;;4319901;33;44866;-85
2022/03/22 08:41:31;;;;;;;;;;;12.10;93.20;;;;;;4319521;33;44889;-86
2022/03/22 08:43:59;;;;;;;;;;;12.10;93.20;;;;;;4332989;33;42917;-85
2022/03/22 08:46:26;;;;;;;;;;;12.10;93.00;;;;;;4333163;33;43858;-85
2022/03/22 08:48:53;;;;;;;;;;;12.10;93.20;;;;;;4319665;33;44044;-85
2022/03/22 08:51:24;;;;;;;;;;;12.10;92.80;;;;;;4332990;33;44270;-85
2022/03/22 08:53:52;;;;;;;;;;;12.20;93.20;;;;;;4332998;33;44967;-85
2022/03/22 08:56:19;;;;;;;;;;;12.20;93.30;;;;;;4319929;33;43995;-85
2022/03/22 08:58:46;;;;;;;;;;;12.20;93.30;;;;;;4319378;33;42882;-85
2022/03/22 09:01:13;;;;;;;;;;;12.20;93.10;;;;;;4319301;33;42740;-85
2022/03/22 09:03:41;;;;;;;;;;;12.20;93.10;;;;;;4319294;33;44255;-85
2022/03/22 09:06:08;;;;;;;;;;;12.20;93.00;;;;;;4319890;33;43301;-84
2022/03/22 09:08:36;;;;;;;;;;;12.20;93.10;;;;;;4332365;33;43341;-85
2022/03/22 09:11:04;;;;;;;;;;;12.20;93.00;;;;;;4319200;33;42295;-85
2022/03/22 09:13:37;;;;;;;;;;;12.20;92.60;;;;;;4332376;33;42949;-85
2022/03/22 09:16:05;;;;;;;;;;;12.20;92.70;;;;;;4319514;33;43578;-85
2022/03/22 09:18:32;;;;;;;;;;;12.20;92.70;;;;;;4319003;33;44629;-85
2022/03/22 09:21:00;;;;;;;;;;;12.20;92.60;;;;;;4319100;33;43312;-85
2022/03/22 09:23:27;;;;;;;;;;;12.30;92.60;;;;;;4332166;33;42773;-84
2022/03/22 09:25:55;;;;;;;;;;;12.20;92.40;;;;;;4318993;33;42701;-84
2022/03/22 09:28:22;;;;;;;;;;;12.30;92.10;;;;;;4319411;33;43649;-84
2022/03/22 09:30:49;;;;;;;;;;;12.30;92.10;;;;;;4332094;33;44860;-84
2022/03/22 09:33:17;;;;;;;;;;;12.30;92.10;;;;;;4332356;33;44466;-84
2022/03/22 09:35:44;;;;;;;;;;;12.30;92.00;;;;;;4319260;33;43479;-84
2022/03/22 09:38:16;;;;;;;;;;;12.30;92.20;;;;;;4332529;33;45704;-84
2022/03/22 09:40:43;;;;;;;;;;;12.30;92.10;;;;;;4318888;33;43954;-84
2022/03/22 09:43:11;;;;;;;;;;;12.40;91.90;;;;;;4331381;33;43486;-84
2022/03/22 09:45:39;;;;;;;;;;;12.40;91.60;;;;;;4332042;33;42735;-84
2022/03/22 09:48:11;;;;;;;;;;;12.40;91.60;;;;;;4332391;33;43962;-85
2022/03/22 09:53:24;;;;;;;;;;;12.50;91.60;;;;;;4332242;33;43561;-85
2022/03/22 09:55:51;;;;;;;;;;;12.40;91.60;;;;;;4332307;33;44233;-85
2022/03/22 09:58:18;;;;;;;;;;;12.50;91.30;;;;;;4319180;33;44381;-84
2022/03/22 10:00:46;;;;;;;;;;;12.50;91.40;;;;;;4318405;33;42120;-84
2022/03/22 10:03:20;;;;;;;;;;;12.50;91.30;;;;;;4318479;33;44287;-84
2022/03/22 10:06:03;;;;;;;;;;;12.50;91.20;;;;;;4331885;33;43515;-84
2022/03/22 10:08:30;;;;;;;;;;;12.50;90.90;;;;;;4332044;33;44612;-84
2022/03/22 10:11:04;;;;;;;;;;;12.60;91.00;;;;;;4331581;33;42832;-85
2022/03/22 10:13:33;;;;;;;;;;;12.60;90.90;;;;;;4331983;33;44222;-85
2022/03/22 10:16:01;;;;;;;;;;;12.60;90.80;;;;;;4332109;33;43161;-84
2022/03/22 10:18:29;;;;;;;;;;;12.60;90.90;;;;;;4318444;33;44708;-84
2022/03/22 10:21:00;;;;;;;;;;;12.60;90.80;;;;;;4318605;33;44204;-87
2022/03/22 10:23:28;;;;;;;;;;;12.60;90.80;;;;;;4318767;33;45028;-84
2022/03/22 10:26:03;;;;;;;;;;;12.60;90.70;;;;;;4331710;33;44233;-85
2022/03/22 10:28:30;;;;;;;;;;;12.70;91.40;;;;;;4318256;33;43802;-85
2022/03/22 10:30:57;;;;;;;;;;;12.70;91.30;;;;;;4318077;33;42898;-85
2022/03/22 10:33:24;;;;;;;;;;;12.70;91.40;;;;;;4331155;33;44043;-84
2022/03/22 10:35:51;;;;;;;;;;;12.70;91.40;;;;;;4318039;33;44223;-84
2022/03/22 10:38:19;;;;;;;;;;;12.70;91.30;;;;;;4317992;33;42488;-84
2022/03/22 10:40:47;;;;;;;;;;;12.80;91.30;;;;;;4318099;33;44224;-84
2022/03/22 10:43:16;;;;;;;;;;;12.80;91.50;;;;;;4317934;33;44257;-84
2022/03/22 10:45:43;;;;;;;;;;;12.80;91.70;;;;;;4331076;33;43475;-86
2022/03/22 10:48:14;;;;;;;;;;;12.80;91.50;;;;;;4318284;33;42834;-84
2022/03/22 10:50:43;;;;;;;;;;;12.80;91.50;;;;;;4331003;33;42292;-84
2022/03/22 10:53:13;;;;;;;;;;;12.80;91.90;;;;;;4331441;33;43977;-84
2022/03/22 10:55:40;;;;;;;;;;;12.80;92.00;;;;;;4317753;33;43020;-84
2022/03/22 10:58:07;;;;;;;;;;;12.80;91.90;;;;;;4317727;33;43314;-84
2022/03/22 11:00:36;;;;;;;;;;;12.90;91.80;;;;;;4318032;33;44263;-84
2022/03/22 11:03:04;;;;;;;;;;;12.90;91.20;;;;;;4330610;33;44095;-84
2022/03/22 11:05:32;;;;;;;;;;;12.90;91.20;;;;;;4330755;33;44216;-84
2022/03/22 11:07:59;;;;;;;;;;;13.00;91.40;;;;;;4317648;33;43445;-84
2022/03/22 11:10:29;;;;;;;;;;;13.00;91.50;;;;;;4317927;33;43923;-84
2022/03/22 11:12:58;;;;;;;;;;;13.00;91.30;;;;;;4331163;33;42916;-83
2022/03/22 11:15:31;;;;;;;;;;;13.00;91.50;;;;;;4318501;33;21432;-84
2022/03/22 11:17:58;;;;;;;;;;;13.10;91.70;;;;;;4317783;33;44098;-84
2022/03/22 11:20:25;;;;;;;;;;;13.00;91.80;;;;;;4330806;33;43515;-84
2022/03/22 11:22:54;;;;;;;;;;;13.10;92.00;;;;;;4317696;33;43391;-84
2022/03/22 11:25:31;;;;;;;;;;;13.10;92.00;;;;;;4330511;33;43463;-84
2022/03/22 11:27:59;;;;;;;;;;;13.10;92.20;;;;;;4317860;33;43885;-84
2022/03/22 11:30:27;;;;;;;;;;;13.10;92.20;;;;;;4317727;33;44043;-85
2022/03/22 11:35:47;;;;;;;;;;;13.20;92.30;;;;;;4330564;33;43552;-86
2022/03/22 11:38:34;;;;;;;;;;;13.20;92.10;;;;;;4331231;33;43320;-85
2022/03/22 11:43:48;;;;;;;;;;;13.20;92.30;;;;;;4330733;33;44912;-84
2022/03/22 11:46:15;;;;;;;;;;;13.30;92.20;;;;;;4331403;33;20009;-84
2022/03/22 11:48:42;;;;;;;;;;;13.30;92.40;;;;;;4330214;33;44230;-84
2022/03/22 11:51:09;;;;;;;;;;;13.30;92.40;;;;;;4330266;33;44224;-84
2022/03/22 11:53:41;;;;;;;;;;;13.30;92.50;;;;;;4317470;33;44169;-84
2022/03/22 11:56:09;;;;;;;;;;;13.40;92.40;;;;;;4317458;33;43976;-84
2022/03/22 11:58:36;;;;;;;;;;;13.40;92.60;;;;;;4317043;33;44231;-84
2022/03/22 12:01:33;;;;;;;;;;;13.40;92.40;;;;;;4330405;33;45855;-84
2022/03/22 12:04:00;;;;;;;;;;;13.40;92.30;;;;;;4317548;33;42282;-84
2022/03/22 12:06:30;;;;;;;;;;;13.50;92.60;;;;;;4329781;33;43847;-85
2022/03/22 12:08:58;;;;;;;;;;;13.50;92.60;;;;;;4317458;33;43890;-84
2022/03/22 12:11:25;;;;;;;;;;;13.50;92.50;;;;;;4330331;33;43216;-84
2022/03/22 12:13:52;;;;;;;;;;;13.50;92.50;;;;;;4330444;33;43482;-84
2022/03/22 12:16:25;;;;;;;;;;;13.60;92.50;;;;;;4318249;33;19998;-84
2022/03/22 12:18:52;;;;;;;;;;;13.60;92.30;;;;;;4330506;33;43481;-84
2022/03/22 12:21:21;;;;;;;;;;;13.60;92.20;;;;;;4316825;33;44210;-84
2022/03/22 12:23:48;;;;;;;;;;;13.70;92.00;;;;;;4317263;33;44286;-84
2022/03/22 12:26:21;;;;;;;;;;;13.70;92.00;;;;;;4316746;33;44351;-84
2022/03/22 12:28:48;;;;;;;;;;;13.70;92.10;;;;;;4317117;33;45509;-85
2022/03/22 12:31:21;;;;;;;;;;;13.80;92.30;;;;;;4316795;33;43820;-85
2022/03/22 12:33:51;;;;;;;;;;;13.80;92.30;;;;;;4317257;33;43414;-84
2022/03/22 12:36:19;;;;;;;;;;;13.80;92.30;;;;;;4317025;33;44365;-84
2022/03/22 12:38:46;;;;;;;;;;;13.90;92.40;;;;;;4316770;33;44218;-84
2022/03/22 12:41:14;;;;;;;;;;;13.90;92.30;;;;;;4317140;33;43197;-84
2022/03/22 12:43:45;;;;;;;;;;;13.90;92.40;;;;;;4317031;33;43200;-85
2022/03/22 12:46:13;;;;;;;;;;;13.90;92.30;;;;;;4329965;33;44260;-84
2022/03/22 12:48:41;;;;;;;;;;;14.00;92.10;;;;;;4316705;33;42735;-84
2022/03/22 12:51:08;;;;;;;;;;;14.00;92.00;;;;;;4316654;33;44224;-85
2022/03/22 12:53:37;;;;;;;;;;;14.10;92.10;;;;;;4317090;33;43240;-84
2022/03/22 12:56:14;;;;;;;;;;;14.10;92.10;;;;;;4317133;33;44364;-85
2022/03/22 12:58:41;;;;;;;;;;;14.10;92.10;;;;;;4330749;33;44028;-85
2022/03/22 13:01:08;;;;;;;;;;;14.10;91.70;;;;;;4317007;33;45615;-84
2022/03/22 13:03:38;;;;;;;;;;;14.20;91.60;;;;;;4316377;33;44204;-84
2022/03/22 13:06:06;;;;;;;;;;;14.20;91.40;;;;;;4329631;33;44857;-84
2022/03/22 13:11:30;;;;;;;;;;;14.30;91.70;;;;;;4330194;33;45992;-85
2022/03/22 13:16:56;;;;;;;;;;;14.30;91.20;;;;;;4330212;33;43518;-84
2022/03/22 13:19:23;;;;;;;;;;;14.40;91.40;;;;;;4318486;33;42442;-84
2022/03/22 13:21:51;;;;;;;;;;;14.40;91.40;;;;;;4319483;33;44228;-84
2022/03/22 13:24:22;;;;;;;;;;;14.50;91.50;;;;;;4332243;33;43838;-85
2022/03/22 13:26:58;;;;;;;;;;;14.50;91.40;;;;;;4332363;33;43067;-85
2022/03/22 13:29:32;;;;;;;;;;;14.50;91.50;;;;;;4332708;33;44196;-84
2022/03/22 13:32:00;;;;;;;;;;;14.60;91.30;;;;;;4332653;33;44562;-84
2022/03/22 13:34:28;;;;;;;;;;;14.60;91.20;;;;;;4332034;33;45050;-83
2022/03/22 13:37:05;;;;;;;;;;;14.70;90.70;;;;;;4319044;33;43859;-84
2022/03/22 13:39:32;;;;;;;;;;;14.70;91.20;;;;;;4319269;33;44093;-84
2022/03/22 13:42:13;;;;;;;;;;;14.70;91.10;;;;;;4319330;33;43882;-84
2022/03/22 13:44:45;;;;;;;;;;;14.80;91.10;;;;;;4319234;33;44018;-84
2022/03/22 13:47:23;;;;;;;;;;;14.80;91.10;;;;;;4318881;33;44633;-84
2022/03/22 13:49:51;;;;;;;;;;;14.80;90.80;;;;;;4318902;33;43189;-84
2022/03/22 13:52:25;;;;;;;;;;;14.80;89.40;;;;;;4318683;33;43361;-84
2022/03/22 13:54:57;;;;;;;;;;;14.90;90.20;;;;;;4319009;33;45879;-86
2022/03/22 13:57:27;;;;;;;;;;;14.90;89.40;;;;;;4332356;33;43843;-87
2022/03/22 13:59:59;;;;;;;;;;;15.00;85.70;;;;;;4318917;33;44014;-86
2022/03/22 14:02:26;;;;;;;;;;;15.00;85.10;;;;;;4318465;33;43718;-87
2022/03/22 14:04:55;;;;;;;;;;;15.10;86.50;;;;;;4318838;33;45250;-87
2022/03/22 14:07:22;;;;;;;;;;;15.10;85.80;;;;;;4332016;33;44880;-87
2022/03/22 14:09:51;;;;;;;;;;;15.20;84.30;;;;;;4331666;33;44091;-86
2022/03/22 14:12:18;;;;;;;;;;;15.20;82.70;;;;;;4318769;33;45597;-86
2022/03/22 14:14:45;;;;;;;;;;;15.30;85.10;;;;;;4331494;33;44245;-86
2022/03/22 14:17:12;;;;;;;;;;;15.30;81.90;;;;;;4332092;33;43156;-86
2022/03/22 14:19:39;;;;;;;;;;;15.30;81.80;;;;;;4331790;33;44209;-86
2022/03/22 14:22:06;;;;;;;;;;;15.40;84.10;;;;;;4331922;33;43900;-87
2022/03/22 14:24:33;;;;;;;;;;;15.40;84.90;;;;;;4331309;33;45001;-86
2022/03/22 14:27:01;;;;;;;;;;;15.40;83.20;;;;;;4331534;33;42660;-87
2022/03/22 14:29:28;;;;;;;;;;;15.50;80.60;;;;;;4331197;33;44138;-86
2022/03/22 14:31:55;;;;;;;;;;;15.50;82.50;;;;;;4331540;33;43212;-87
2022/03/22 14:37:08;;;;;;;;;;;15.50;79.50;;;;;;4331707;33;45675;-87
2022/03/22 14:39:35;;;;;;;;;;;15.60;83.20;;;;;;4318584;33;44052;-87
2022/03/22 14:42:03;;;;;;;;;;;15.60;80.10;;;;;;4318252;33;43660;-87
2022/03/22 14:44:30;;;;;;;;;;;15.60;79.90;;;;;;4331575;33;43986;-87
2022/03/22 14:47:00;;;;;;;;;;;15.70;79.00;;;;;;4331526;33;43334;-88
2022/03/22 14:49:27;;;;;;;;;;;15.70;79.00;;;;;;4318466;33;44239;-86
2022/03/22 14:54:42;;;;;;;;;;;15.80;79.00;;;;;;4331345;33;45875;-86
2022/03/22 14:59:55;;;;;;;;;;;15.80;78.10;;;;;;4331405;33;45764;-86
2022/03/22 15:02:27;;;;;;;;;;;15.80;75.40;;;;;;4330572;33;42678;-87
2022/03/22 15:04:54;;;;;;;;;;;15.90;76.10;;;;;;4330993;33;42833;-86
2022/03/22 15:07:22;;;;;;;;;;;15.90;75.00;;;;;;4330766;33;42731;-87
2022/03/22 15:09:49;;;;;;;;;;;15.90;79.00;;;;;;4317764;33;44534;-87
2022/03/22 15:12:17;;;;;;;;;;;15.90;78.10;;;;;;4318026;33;45817;-87
2022/03/22 15:14:45;;;;;;;;;;;15.90;74.40;;;;;;4331041;33;45520;-87